createdAt,value
2019-02-15T00:00:39.904Z,57.73
2019-02-15T00:03:10.851Z,55.88
2019-02-15T00:05:41.398Z,49.20
2019-02-15T00:08:13.366Z,49.42
2019-02-15T00:10:43.790Z,55.60
2019-02-15T00:13:14.478Z,54.07
2019-02-15T00:15:46.678Z,50.23
2019-02-15T00:18:30.355Z,51.68
2019-02-15T00:21:35.159Z,54.20
2019-02-15T00:24:05.677Z,51.20
2019-02-15T00:26:38.884Z,49.27
2019-02-15T00:29:09.722Z,51.20
2019-02-15T00:31:41.577Z,44.20
2019-02-15T00:34:12.274Z,49.75
2019-02-15T00:36:42.631Z,42.75
2019-02-15T00:39:13.515Z,41.48
2019-02-15T00:41:44.084Z,32.57
2019-02-15T00:44:14.961Z,36.23
2019-02-15T00:47:09.091Z,28.67
2019-02-15T00:49:58.602Z,28.10
2019-02-15T00:52:53.190Z,29.47
2019-02-15T00:55:38.362Z,29.83
2019-02-15T00:58:33.907Z,26.80
2019-02-15T01:01:16.180Z,23.10
2019-02-15T01:04:15.153Z,29.27
2019-02-15T01:07:07.313Z,33.20
2019-02-15T01:10:02.816Z,25.00
2019-02-15T01:12:42.330Z,21.97
2019-02-15T01:15:13.386Z,27.95
2019-02-15T01:17:43.856Z,31.07
2019-02-15T01:20:14.313Z,29.85
2019-02-15T01:22:46.109Z,29.00
2019-02-15T01:25:16.755Z,37.75
2019-02-15T01:27:56.080Z,36.77
2019-02-15T01:30:44.352Z,35.50
2019-02-15T01:33:32.752Z,42.05
2019-02-15T01:36:22.414Z,47.80
2019-02-15T01:39:08.999Z,44.13
2019-02-15T01:41:58.484Z,46.33
2019-02-15T01:44:59.803Z,44.37
2019-02-15T01:47:37.558Z,46.00
2019-02-15T01:50:08.350Z,42.77
2019-02-15T01:52:40.346Z,43.80
2019-02-15T01:55:12.134Z,42.60
2019-02-15T01:57:42.924Z,45.33
2019-02-15T02:00:16.013Z,40.15
2019-02-15T02:02:46.607Z,41.87
2019-02-15T02:05:17.007Z,39.23
2019-02-15T02:07:47.856Z,38.97
2019-02-15T02:10:18.244Z,40.53
2019-02-15T02:12:48.737Z,36.87
2019-02-15T02:15:19.351Z,35.73
2019-02-15T02:17:50.135Z,40.90
2019-02-15T02:20:20.777Z,39.93
2019-02-15T02:22:51.774Z,37.83
2019-02-15T02:25:22.373Z,36.03
2019-02-15T02:27:54.560Z,36.87
2019-02-15T02:30:25.307Z,33.80
2019-02-15T02:32:56.532Z,39.53
2019-02-15T02:35:27.077Z,38.97
2019-02-15T02:37:58.685Z,38.97
2019-02-15T02:40:30.911Z,39.33
2019-02-15T02:43:01.605Z,41.20
2019-02-15T02:45:32.562Z,37.00
2019-02-15T02:48:02.987Z,39.20
2019-02-15T02:50:33.634Z,39.50
2019-02-15T02:53:04.674Z,39.50
2019-02-15T02:55:35.394Z,38.90
2019-02-15T02:58:06.442Z,37.37
2019-02-15T03:00:37.229Z,37.37
2019-02-15T03:03:07.767Z,37.70
2019-02-15T03:05:38.247Z,38.70
2019-02-15T03:08:09.112Z,40.87
2019-02-15T03:10:40.494Z,40.80
2019-02-15T03:13:11.127Z,41.73
2019-02-15T03:15:41.906Z,43.40
2019-02-15T03:18:12.302Z,43.77
2019-02-15T03:20:42.687Z,46.00
2019-02-15T03:23:13.919Z,41.70
2019-02-15T03:25:44.483Z,44.97
2019-02-15T03:28:17.641Z,48.23
2019-02-15T03:30:48.282Z,47.00
2019-02-15T03:33:18.835Z,41.80
2019-02-15T03:36:00.095Z,46.17
2019-02-15T03:38:57.324Z,42.57
2019-02-15T03:41:32.705Z,42.10
2019-02-15T03:44:03.087Z,38.83
2019-02-15T03:46:33.745Z,38.83
2019-02-15T03:49:04.805Z,34.03
2019-02-15T03:51:35.240Z,31.13
2019-02-15T03:54:05.776Z,25.45
2019-02-15T03:56:37.634Z,29.60
2019-02-15T03:59:10.010Z,27.63
2019-02-15T04:01:43.477Z,30.97
2019-02-15T04:04:14.651Z,29.97
2019-02-15T04:06:47.482Z,31.70
2019-02-15T04:09:18.249Z,32.85
2019-02-15T04:11:48.759Z,35.10
2019-02-15T04:14:19.098Z,31.50
2019-02-15T04:16:49.887Z,32.97
2019-02-15T04:19:22.041Z,32.35
2019-02-15T04:21:52.468Z,32.87
2019-02-15T04:24:23.143Z,35.67
2019-02-15T04:26:53.792Z,37.30
2019-02-15T04:29:24.436Z,37.60
2019-02-15T04:31:55.141Z,36.20
2019-02-15T04:34:25.782Z,36.07
2019-02-15T04:36:56.660Z,36.20
2019-02-15T04:39:27.829Z,38.07
2019-02-15T04:41:58.267Z,40.43
2019-02-15T04:44:28.935Z,40.57
2019-02-15T04:46:59.393Z,40.23
2019-02-15T04:49:29.872Z,38.77
2019-02-15T04:52:00.485Z,35.87
2019-02-15T04:54:31.329Z,35.90
2019-02-15T04:57:02.119Z,32.90
2019-02-15T04:59:32.997Z,31.20
2019-02-15T05:02:03.824Z,29.37
2019-02-15T05:04:34.712Z,31.53
2019-02-15T05:07:06.020Z,33.90
2019-02-15T05:09:37.221Z,33.33
2019-02-15T05:12:07.902Z,28.43
2019-02-15T05:14:38.445Z,27.57
2019-02-15T05:17:09.289Z,23.23
2019-02-15T05:19:40.071Z,22.23
2019-02-15T05:22:10.748Z,23.00
2019-02-15T05:24:41.642Z,24.37
2019-02-15T05:27:12.240Z,31.77
2019-02-15T05:29:42.659Z,25.37
2019-02-15T05:32:13.224Z,28.42
2019-02-15T05:34:43.753Z,30.32
2019-02-15T05:37:14.511Z,29.42
2019-02-15T05:39:44.936Z,24.87
2019-02-15T05:42:15.418Z,24.50
2019-02-15T05:44:46.508Z,23.47
2019-02-15T05:47:17.921Z,22.10
2019-02-15T05:49:48.530Z,23.47
2019-02-15T05:52:19.012Z,17.27
2019-02-15T05:54:50.561Z,20.30
2019-02-15T05:57:21.543Z,22.42
2019-02-15T05:59:52.185Z,26.07
2019-02-15T06:02:22.914Z,22.10
2019-02-15T06:04:53.658Z,21.60
2019-02-15T06:07:24.174Z,21.57
2019-02-15T06:09:54.894Z,21.67
2019-02-15T06:12:25.366Z,23.47
2019-02-15T06:14:55.830Z,25.03
2019-02-15T06:17:27.370Z,25.97
2019-02-15T06:19:58.151Z,24.10
2019-02-15T06:22:28.653Z,24.33
2019-02-15T06:24:59.220Z,24.60
2019-02-15T06:27:29.737Z,21.97
2019-02-15T06:30:00.740Z,25.67
2019-02-15T06:32:31.574Z,23.83
2019-02-15T06:35:02.173Z,25.37
2019-02-15T06:37:32.723Z,21.43
2019-02-15T06:40:03.413Z,20.40
2019-02-15T06:42:33.779Z,20.40
2019-02-15T06:45:04.259Z,18.63
2019-02-15T06:47:34.805Z,18.98
2019-02-15T06:50:06.132Z,20.35
2019-02-15T06:52:36.669Z,18.07
2019-02-15T06:55:08.291Z,19.40
2019-02-15T06:57:38.841Z,17.35
2019-02-15T07:00:32.073Z,20.57
2019-02-15T07:03:18.231Z,20.60
2019-02-15T07:05:48.854Z,19.43
2019-02-15T07:08:19.258Z,22.80
2019-02-15T07:10:49.756Z,23.80
2019-02-15T07:13:20.128Z,23.47
2019-02-15T07:15:51.730Z,23.20
2019-02-15T07:18:22.121Z,24.43
2019-02-15T07:20:52.817Z,20.43
2019-02-15T07:23:26.077Z,22.82
2019-02-15T07:25:57.893Z,20.47
2019-02-15T07:42:15.437Z,19.20
2019-02-15T07:44:49.296Z,19.25
2019-02-15T07:47:22.392Z,9.95
2019-02-15T07:49:57.150Z,14.83
2019-02-15T07:52:29.868Z,15.23
2019-02-15T07:55:02.078Z,13.87
2019-02-15T07:57:34.053Z,19.23
2019-02-15T08:00:10.161Z,17.87
2019-02-15T08:02:42.583Z,17.63
2019-02-15T08:05:14.837Z,16.87
2019-02-15T08:07:46.985Z,18.07
2019-02-15T08:10:19.081Z,18.23
2019-02-15T08:12:51.279Z,9.27
2019-02-15T08:15:23.583Z,15.83
2019-02-15T08:17:55.634Z,14.27
2019-02-15T08:20:27.779Z,8.60
2019-02-15T08:23:00.072Z,9.97
2019-02-15T08:25:32.124Z,4.33
2019-02-15T08:28:04.102Z,7.10
2019-02-15T08:30:36.888Z,8.73
2019-02-15T08:33:09.089Z,6.90
2019-02-15T08:35:41.183Z,5.90
2019-02-15T08:38:13.163Z,8.90
2019-02-15T08:40:45.365Z,12.20
2019-02-15T08:43:17.630Z,11.33
2019-02-15T08:45:49.895Z,10.30
2019-02-15T08:48:23.611Z,11.10
2019-02-15T08:50:55.585Z,13.43
2019-02-15T08:53:27.638Z,16.00
2019-02-15T08:55:59.971Z,16.15
2019-02-15T08:58:32.060Z,14.10
2019-02-15T09:01:05.243Z,12.97
2019-02-15T09:03:37.635Z,11.30
2019-02-15T09:06:09.777Z,16.27
2019-02-15T09:08:41.940Z,15.80
2019-02-15T09:11:14.030Z,16.43
2019-02-15T09:13:47.472Z,15.60
2019-02-15T09:16:19.517Z,16.82
2019-02-15T09:18:52.060Z,15.70
2019-02-15T09:21:24.160Z,16.80
2019-02-15T09:23:56.207Z,17.80
2019-02-15T09:26:29.836Z,18.03
2019-02-15T09:29:05.782Z,16.87
2019-02-15T09:31:37.908Z,15.50
2019-02-15T09:34:10.048Z,15.53
2019-02-15T09:36:42.201Z,15.57
2019-02-15T09:39:14.187Z,14.70
2019-02-15T09:41:48.667Z,15.50
2019-02-15T09:44:20.656Z,15.95
2019-02-15T09:46:52.894Z,15.77
2019-02-15T09:49:24.879Z,15.97
2019-02-15T09:51:57.831Z,16.37
2019-02-15T09:54:29.818Z,18.70
2019-02-15T09:57:01.951Z,18.33
2019-02-15T09:59:33.971Z,18.60
2019-02-15T10:02:06.000Z,16.10
2019-02-15T10:04:38.076Z,19.23
2019-02-15T10:07:10.326Z,17.97
2019-02-15T10:09:42.534Z,22.07
2019-02-15T10:12:14.572Z,21.27
2019-02-15T10:14:46.542Z,18.83
2019-02-15T10:17:18.848Z,15.70
2019-02-15T10:19:50.899Z,16.48
2019-02-15T10:22:22.895Z,19.57
2019-02-15T10:24:55.002Z,20.75
2019-02-15T10:27:27.443Z,19.50
2019-02-15T10:29:59.962Z,19.63
2019-02-15T10:32:32.710Z,15.63
2019-02-15T10:35:06.632Z,16.87
2019-02-15T12:44:38.588Z,17.70
2019-02-15T12:47:15.120Z,18.63
2019-02-15T12:49:41.805Z,18.47
2019-02-15T12:52:12.776Z,18.25
2019-02-15T12:54:45.002Z,18.50
2019-02-15T12:57:15.671Z,18.30
2019-02-15T12:59:46.654Z,19.60
2019-02-15T13:02:19.606Z,19.40
2019-02-15T13:04:50.037Z,17.27
2019-02-15T13:07:22.083Z,17.77
2019-02-15T13:09:52.860Z,16.17
2019-02-15T13:12:23.412Z,16.12
2019-02-15T13:14:54.132Z,16.17
2019-02-15T13:17:25.210Z,18.60
2019-02-15T13:19:56.079Z,19.00
2019-02-15T13:22:26.543Z,19.10
2019-02-15T13:24:57.095Z,18.07
2019-02-15T13:27:27.729Z,17.93
2019-02-15T13:29:58.524Z,18.40
2019-02-15T13:32:30.130Z,20.67
2019-02-15T13:35:00.882Z,19.97
2019-02-15T13:37:31.289Z,19.87
2019-02-15T13:40:01.790Z,21.23
2019-02-15T13:42:32.215Z,20.87
2019-02-15T13:45:03.285Z,21.10
2019-02-15T13:47:34.992Z,19.07
2019-02-15T13:50:06.472Z,18.53
2019-02-15T13:52:37.076Z,20.07
2019-02-15T13:55:07.706Z,20.00
2019-02-15T13:57:37.992Z,18.93
2019-02-15T14:00:09.706Z,18.63
2019-02-15T14:02:40.344Z,19.80
2019-02-15T14:05:11.403Z,20.10
2019-02-15T14:07:41.913Z,19.37
2019-02-15T14:10:12.548Z,20.08
2019-02-15T14:12:45.850Z,18.87
2019-02-15T14:15:16.307Z,20.70
2019-02-15T14:17:48.715Z,19.17
2019-02-15T14:20:20.043Z,19.87
2019-02-15T14:22:50.727Z,20.30
2019-02-15T14:25:22.537Z,19.48
2019-02-15T14:27:53.039Z,20.77
2019-02-15T14:30:23.769Z,21.90
2019-02-15T14:32:54.554Z,22.50
2019-02-15T14:35:26.283Z,23.93
2019-02-15T14:37:58.592Z,24.07
2019-02-15T14:40:29.009Z,24.70
2019-02-15T14:43:00.097Z,24.83
2019-02-15T14:45:31.219Z,25.20
2019-02-15T14:48:02.833Z,25.13
2019-02-15T14:50:33.404Z,25.73
2019-02-15T14:53:05.162Z,26.97
2019-02-15T14:55:36.014Z,26.67
2019-02-15T14:58:06.630Z,24.10
2019-02-15T15:00:37.586Z,25.43
2019-02-15T15:03:08.461Z,26.07
2019-02-15T15:05:39.956Z,26.23
2019-02-15T15:08:10.699Z,25.13
2019-02-15T15:10:41.407Z,25.83
2019-02-15T15:13:11.770Z,25.37
2019-02-15T15:15:44.076Z,26.37
2019-02-15T15:18:15.742Z,26.02
2019-02-15T15:20:46.376Z,24.93
2019-02-15T15:23:18.716Z,26.87
2019-02-15T15:25:49.061Z,25.37
2019-02-15T15:28:21.200Z,26.35
2019-02-15T15:30:53.366Z,27.13
2019-02-15T15:33:23.862Z,26.73
2019-02-15T15:35:54.240Z,26.73
2019-02-15T15:38:24.607Z,27.93
2019-02-15T15:40:55.171Z,27.10
2019-02-15T15:43:27.580Z,27.10
2019-02-15T15:45:58.146Z,28.87
2019-02-15T15:48:30.294Z,28.47
2019-02-15T15:51:01.020Z,27.97
2019-02-15T15:53:32.838Z,28.50
2019-02-15T15:56:03.561Z,28.40
2019-02-15T15:58:34.023Z,29.85
2019-02-15T16:01:04.923Z,29.40
2019-02-15T16:03:35.426Z,31.17
2019-02-15T16:06:06.106Z,29.47
2019-02-15T16:08:36.595Z,30.40
2019-02-15T16:11:07.631Z,28.80
2019-02-15T16:13:38.152Z,29.47
2019-02-15T16:16:08.689Z,30.30
2019-02-15T16:18:39.157Z,30.30
2019-02-15T16:21:10.536Z,29.23
2019-02-15T16:23:40.899Z,32.90
2019-02-15T16:26:11.422Z,29.80
2019-02-15T16:28:41.856Z,29.83
2019-02-15T16:31:12.567Z,30.83
2019-02-15T16:33:43.011Z,31.47
2019-02-15T16:36:13.363Z,30.07
2019-02-15T16:38:43.893Z,31.57
2019-02-15T16:41:14.497Z,32.35
2019-02-15T16:43:44.927Z,33.10
2019-02-15T16:46:15.628Z,31.53
2019-02-15T16:48:46.216Z,33.60
2019-02-15T16:51:18.267Z,33.37
2019-02-15T16:53:48.785Z,33.70
2019-02-15T16:56:19.269Z,34.37
2019-02-15T16:58:49.874Z,34.57
2019-02-15T17:01:23.098Z,34.70
2019-02-15T17:03:53.804Z,36.33
2019-02-15T17:06:26.949Z,34.60
2019-02-15T17:08:58.357Z,36.90
2019-02-15T17:11:29.196Z,35.63
2019-02-15T17:13:59.984Z,36.50
2019-02-15T17:16:31.093Z,36.43
2019-02-15T17:19:03.794Z,38.00
2019-02-15T17:21:34.466Z,38.67
2019-02-15T17:24:06.135Z,39.73
2019-02-15T17:26:37.449Z,41.53
2019-02-15T17:29:07.927Z,42.77
2019-02-15T17:31:38.387Z,42.30
2019-02-15T17:34:08.892Z,44.23
2019-02-15T17:36:39.432Z,46.17
2019-02-15T17:39:10.140Z,46.83
2019-02-15T17:41:40.491Z,46.30
2019-02-15T17:44:11.550Z,46.45
2019-02-15T17:46:43.367Z,44.47
2019-02-15T17:49:13.853Z,43.63
2019-02-15T17:51:44.562Z,44.57
2019-02-15T17:54:15.035Z,43.87
2019-02-15T17:56:45.982Z,44.93
2019-02-15T17:59:16.532Z,46.53
2019-02-15T18:01:47.159Z,45.33
2019-02-15T18:04:17.567Z,47.57
2019-02-15T18:06:48.171Z,48.23
2019-02-15T18:09:19.305Z,48.15
2019-02-15T18:11:50.093Z,49.40
2019-02-15T18:14:22.880Z,47.38
2019-02-15T18:16:53.780Z,48.20
2019-02-15T18:19:24.314Z,50.13
2019-02-15T18:21:54.661Z,50.10
2019-02-15T18:24:24.993Z,50.83
2019-02-15T18:26:55.455Z,52.08
2019-02-15T18:29:25.991Z,53.67
2019-02-15T18:31:56.482Z,52.47
2019-02-15T18:34:27.591Z,55.47
2019-02-15T18:36:58.064Z,55.53
2019-02-15T18:39:30.474Z,58.67
2019-02-15T18:42:00.997Z,58.47
2019-02-15T18:44:33.977Z,58.90
2019-02-15T18:47:05.072Z,59.33
2019-02-15T18:49:35.687Z,59.40
2019-02-15T18:52:06.050Z,60.70
2019-02-15T18:54:37.016Z,59.23
2019-02-15T18:57:07.417Z,60.50
2019-02-15T18:59:37.989Z,59.33
2019-02-15T19:02:08.731Z,60.90
2019-02-15T19:04:39.438Z,63.97
2019-02-15T19:07:10.179Z,64.87
2019-02-15T19:09:40.951Z,63.27
2019-02-15T19:12:11.567Z,63.53
2019-02-15T19:14:41.843Z,64.07
2019-02-15T19:17:12.422Z,66.17
2019-02-15T19:19:42.761Z,67.60
2019-02-15T19:22:13.231Z,67.13
2019-02-15T19:24:43.753Z,68.77
2019-02-15T19:27:14.323Z,69.47
2019-02-15T19:29:45.007Z,71.00
2019-02-15T19:32:16.496Z,69.20
2019-02-15T19:34:47.554Z,71.07
2019-02-15T19:37:22.071Z,65.57
2019-02-15T19:39:52.359Z,67.23
2019-02-15T19:42:23.747Z,66.33
2019-02-15T19:44:54.606Z,67.97
2019-02-15T19:47:25.573Z,69.47
2019-02-15T19:49:56.038Z,73.60
2019-02-15T19:52:26.644Z,75.50
2019-02-15T19:54:57.236Z,72.47
2019-02-15T19:57:28.315Z,73.57
2019-02-15T20:00:01.267Z,74.33
2019-02-15T20:02:32.871Z,69.67
2019-02-15T20:05:03.699Z,73.53
2019-02-15T20:07:35.885Z,74.40
2019-02-15T20:10:08.381Z,73.67
2019-02-15T20:12:38.992Z,73.87
2019-02-15T20:15:10.828Z,72.37
2019-02-15T20:17:41.555Z,66.57
2019-02-15T20:20:13.017Z,67.33
2019-02-15T20:22:43.953Z,65.00
2019-02-15T20:25:14.665Z,69.97
2019-02-15T20:27:45.303Z,72.90
2019-02-15T20:30:18.265Z,67.95
2019-02-15T20:32:49.263Z,66.55
2019-02-15T20:35:20.128Z,66.33
2019-02-15T20:37:51.035Z,73.53
2019-02-15T20:40:22.819Z,71.82
2019-02-15T20:42:53.714Z,69.10
2019-02-15T20:45:24.317Z,72.97
2019-02-15T20:47:55.142Z,72.73
2019-02-15T20:50:26.478Z,74.85
2019-02-15T20:52:57.320Z,78.93
2019-02-15T20:55:27.870Z,75.23
2019-02-15T20:57:58.620Z,78.47
2019-02-15T21:00:29.815Z,77.93
2019-02-15T21:03:01.729Z,78.17
2019-02-15T21:05:32.512Z,73.80
2019-02-15T21:08:03.175Z,77.40
2019-02-15T21:10:33.672Z,77.20
2019-02-15T21:13:04.358Z,79.77
2019-02-15T21:15:35.522Z,80.10
2019-02-15T21:18:06.043Z,80.70
2019-02-15T21:20:38.301Z,77.50
2019-02-15T21:23:09.037Z,76.87
2019-02-15T21:25:40.542Z,76.03
2019-02-15T21:28:11.565Z,75.97
2019-02-15T21:30:42.400Z,74.10
2019-02-15T21:33:13.206Z,74.17
2019-02-15T21:35:43.838Z,76.20
2019-02-15T21:38:14.433Z,75.28
2019-02-15T21:40:45.023Z,75.87
2019-02-15T21:43:16.381Z,71.33
2019-02-15T21:45:46.708Z,73.10
2019-02-15T21:48:17.678Z,71.30
2019-02-15T21:50:49.277Z,66.40
2019-02-15T21:53:20.558Z,62.37
2019-02-15T21:55:52.000Z,64.20
2019-02-15T21:58:22.405Z,62.75
2019-02-15T22:00:53.293Z,61.80
2019-02-15T22:03:23.767Z,61.73
2019-02-15T22:05:55.804Z,58.77
2019-02-15T22:08:26.462Z,54.37
2019-02-15T22:10:56.948Z,59.00
2019-02-15T22:13:27.364Z,59.07
2019-02-15T22:15:58.256Z,59.73
2019-02-15T22:18:30.211Z,62.10
2019-02-15T22:21:00.956Z,59.70
2019-02-15T22:23:31.457Z,59.87
2019-02-15T22:26:02.121Z,60.67
2019-02-15T22:28:32.470Z,60.43
2019-02-15T22:31:03.352Z,61.20
2019-02-15T22:33:34.790Z,64.27
2019-02-15T22:36:06.013Z,63.30
2019-02-15T22:38:36.785Z,63.00
2019-02-15T22:41:17.767Z,64.50
2019-02-15T22:43:50.389Z,62.87
2019-02-15T22:46:22.558Z,61.08
2019-02-15T22:48:53.064Z,61.80
2019-02-15T22:51:23.610Z,62.30
2019-02-15T22:53:54.197Z,62.27
2019-02-15T22:56:24.783Z,64.63
2019-02-15T22:58:55.291Z,61.77
2019-02-15T23:01:27.615Z,63.42
2019-02-15T23:03:58.503Z,65.00
2019-02-15T23:06:30.863Z,63.78
2019-02-15T23:09:01.356Z,61.97
2019-02-15T23:11:33.488Z,64.87
2019-02-15T23:14:03.946Z,63.47
2019-02-15T23:16:34.434Z,62.43
2019-02-15T23:19:05.820Z,65.37
2019-02-15T23:21:36.258Z,65.10
2019-02-15T23:24:06.791Z,66.95
2019-02-15T23:26:37.756Z,66.70
2019-02-15T23:29:08.250Z,68.00
2019-02-15T23:31:39.068Z,69.15
2019-02-15T23:34:09.454Z,68.43
2019-02-15T23:36:40.696Z,71.30
2019-02-15T23:39:11.057Z,73.37
2019-02-15T23:41:41.545Z,70.77
2019-02-15T23:44:12.299Z,71.43
2019-02-15T23:46:42.738Z,70.13
2019-02-15T23:49:13.276Z,70.78
2019-02-15T23:51:45.244Z,67.27
2019-02-15T23:54:15.927Z,69.33
2019-02-15T23:56:46.448Z,71.03
2019-02-15T23:59:16.974Z,69.50
